createdAt,value
2022-12-03T00:00:12.531Z,9.63
2022-12-03T00:03:55.359Z,9.43
2022-12-03T00:07:37.470Z,8.77
2022-12-03T00:11:19.477Z,9.32
2022-12-03T00:15:01.610Z,9.13
2022-12-03T00:18:43.636Z,9.65
2022-12-03T00:22:25.594Z,9.35
2022-12-03T00:26:07.673Z,8.85
2022-12-03T00:29:49.634Z,8.85
2022-12-03T00:33:31.787Z,8.57
2022-12-03T00:37:13.795Z,8.02
2022-12-03T00:40:55.723Z,8.20
2022-12-03T00:44:37.653Z,7.32
2022-12-03T00:48:19.605Z,8.35
2022-12-03T00:52:01.568Z,8.05
2022-12-03T00:55:43.562Z,7.63
2022-12-03T00:59:25.483Z,7.43
2022-12-03T01:03:07.492Z,7.45
2022-12-03T01:06:49.429Z,7.78
2022-12-03T01:10:31.422Z,8.02
2022-12-03T01:14:19.013Z,7.47
2022-12-03T01:18:01.021Z,7.63
2022-12-03T01:21:49.673Z,7.53
2022-12-03T01:25:31.785Z,7.57
2022-12-03T01:29:14.404Z,7.32
2022-12-03T01:32:56.323Z,7.70
2022-12-03T01:36:38.247Z,7.85
2022-12-03T01:40:21.426Z,7.57
2022-12-03T01:44:10.575Z,6.82
2022-12-03T01:47:52.539Z,6.97
2022-12-03T01:51:34.516Z,7.18
2022-12-03T01:55:23.897Z,6.05
2022-12-03T01:59:05.863Z,6.50
2022-12-03T02:02:52.708Z,6.18
2022-12-03T02:06:34.715Z,6.72
2022-12-03T02:10:19.099Z,6.47
2022-12-03T02:14:06.601Z,5.13
2022-12-03T02:17:48.726Z,6.30
2022-12-03T02:21:59.875Z,6.15
2022-12-03T02:25:41.982Z,6.25
2022-12-03T02:29:23.948Z,6.03
2022-12-03T02:33:05.885Z,6.32
2022-12-03T02:36:47.831Z,6.13
2022-12-03T02:40:33.293Z,7.47
2022-12-03T02:44:15.519Z,6.28
2022-12-03T02:48:20.169Z,6.43
2022-12-03T02:52:02.358Z,5.85
2022-12-03T02:55:45.455Z,5.75
2022-12-03T02:59:27.494Z,6.00
2022-12-03T03:03:10.271Z,6.05
2022-12-03T03:06:52.745Z,6.38
2022-12-03T03:10:36.644Z,6.00
2022-12-03T03:14:18.685Z,6.70
2022-12-03T03:18:00.691Z,6.65
2022-12-03T03:21:42.630Z,6.60
2022-12-03T03:25:24.889Z,6.50
2022-12-03T03:29:06.840Z,6.60
2022-12-03T03:32:48.846Z,7.35
2022-12-03T03:36:31.478Z,6.65
2022-12-03T03:40:13.934Z,7.40
2022-12-03T03:43:56.306Z,7.20
2022-12-03T03:47:39.012Z,7.50
2022-12-03T03:51:21.400Z,7.32
2022-12-03T03:55:03.856Z,8.05
2022-12-03T03:58:45.850Z,7.32
2022-12-03T04:02:28.550Z,7.68
2022-12-03T04:06:11.303Z,6.75
2022-12-03T04:09:53.374Z,7.43
2022-12-03T04:13:36.185Z,7.15
2022-12-03T04:17:18.147Z,6.90
2022-12-03T04:21:18.343Z,7.43
2022-12-03T04:25:19.049Z,7.75
2022-12-03T04:29:01.327Z,7.57
2022-12-03T04:33:01.700Z,7.65
2022-12-03T04:36:43.716Z,7.68
2022-12-03T04:40:44.039Z,7.55
2022-12-03T04:44:38.362Z,7.80
2022-12-03T04:48:20.334Z,7.45
2022-12-03T04:52:02.339Z,7.35
2022-12-03T04:55:44.327Z,7.65
2022-12-03T04:59:26.377Z,7.82
2022-12-03T05:03:08.410Z,8.15
2022-12-03T05:06:50.526Z,7.63
2022-12-03T05:10:32.491Z,8.10
2022-12-03T05:14:14.439Z,7.80
2022-12-03T05:17:56.351Z,8.32
2022-12-03T05:21:38.320Z,8.75
2022-12-03T05:25:20.258Z,8.88
2022-12-03T05:29:02.254Z,8.55
2022-12-03T05:32:44.178Z,8.45
2022-12-03T05:36:26.233Z,7.90
2022-12-03T05:40:08.811Z,8.55
2022-12-03T05:43:50.821Z,8.85
2022-12-03T05:47:32.756Z,8.48
2022-12-03T05:51:14.766Z,8.40
2022-12-03T05:54:56.868Z,7.97
2022-12-03T05:58:38.857Z,7.28
2022-12-03T06:02:21.006Z,8.02
2022-12-03T06:06:03.291Z,7.50
2022-12-03T06:09:45.241Z,7.75
2022-12-03T06:13:27.297Z,7.85
2022-12-03T06:17:09.349Z,8.18
2022-12-03T06:20:51.285Z,6.80
2022-12-03T06:24:33.475Z,6.60
2022-12-03T06:28:15.420Z,7.03
2022-12-03T06:31:57.851Z,6.28
2022-12-03T06:35:39.806Z,6.13
2022-12-03T06:39:21.846Z,6.57
2022-12-03T06:43:03.841Z,5.97
2022-12-03T06:46:45.886Z,5.93
2022-12-03T06:50:27.950Z,5.78
2022-12-03T06:54:09.863Z,4.75
2022-12-03T06:57:51.917Z,6.00
2022-12-03T07:01:33.865Z,5.63
2022-12-03T07:05:15.884Z,5.43
2022-12-03T07:08:58.092Z,6.22
2022-12-03T07:12:40.036Z,6.20
2022-12-03T07:16:22.013Z,6.28
2022-12-03T07:20:07.574Z,6.65
2022-12-03T07:23:49.655Z,6.15
2022-12-03T07:27:31.648Z,6.60
2022-12-03T07:31:13.686Z,6.65
2022-12-03T07:34:55.965Z,6.53
2022-12-03T07:38:38.785Z,6.05
2022-12-03T07:42:20.737Z,7.30
2022-12-03T07:46:02.675Z,6.85
2022-12-03T07:49:44.818Z,6.15
2022-12-03T07:53:26.753Z,6.68
2022-12-03T07:57:08.735Z,6.45
2022-12-03T08:00:50.696Z,6.75
2022-12-03T08:04:32.645Z,6.50
2022-12-03T08:08:15.270Z,7.40
2022-12-03T08:12:03.018Z,6.25
2022-12-03T08:15:45.777Z,6.72
2022-12-03T08:19:27.733Z,5.90
2022-12-03T08:23:17.383Z,6.90
2022-12-03T08:26:59.773Z,6.07
2022-12-03T08:30:44.148Z,6.38
2022-12-03T08:34:43.511Z,5.57
2022-12-03T08:38:25.503Z,5.75
2022-12-03T08:42:42.790Z,6.35
2022-12-03T08:46:24.796Z,5.28
2022-12-03T08:50:32.050Z,5.32
2022-12-03T08:54:19.773Z,5.15
2022-12-03T08:58:16.354Z,5.45
2022-12-03T09:02:01.391Z,5.30
2022-12-03T09:05:43.402Z,5.22
2022-12-03T09:09:25.971Z,5.45
2022-12-03T09:13:07.938Z,5.47
2022-12-03T09:16:55.708Z,5.57
2022-12-03T09:24:20.221Z,4.72
2022-12-03T09:28:02.194Z,5.18
2022-12-03T09:31:44.206Z,4.75
2022-12-03T09:35:27.192Z,4.95
2022-12-03T09:39:09.219Z,4.95
2022-12-03T09:42:52.138Z,5.07
2022-12-03T09:46:36.305Z,5.03
2022-12-03T09:50:24.499Z,4.45
2022-12-03T09:54:07.686Z,5.03
2022-12-03T09:57:49.728Z,5.65
2022-12-03T10:01:31.733Z,6.75
2022-12-03T10:05:14.673Z,5.00
2022-12-03T10:08:56.848Z,5.20
2022-12-03T10:12:38.868Z,5.43
2022-12-03T10:16:21.654Z,4.85
2022-12-03T10:20:04.026Z,5.72
2022-12-03T10:23:49.535Z,5.28
2022-12-03T10:27:34.202Z,4.20
2022-12-03T10:31:16.230Z,5.03
2022-12-03T10:35:18.891Z,5.40
2022-12-03T10:39:13.222Z,5.35
2022-12-03T10:43:13.032Z,5.03
2022-12-03T10:47:11.641Z,5.05
2022-12-03T10:51:01.657Z,5.85
2022-12-03T10:54:43.657Z,5.13
2022-12-03T10:58:28.405Z,4.55
2022-12-03T11:02:22.699Z,4.57
2022-12-03T11:06:04.965Z,4.78
2022-12-03T11:09:49.435Z,5.20
2022-12-03T11:13:34.485Z,4.82
2022-12-03T11:17:45.119Z,4.38
2022-12-03T11:21:27.204Z,5.07
2022-12-03T11:25:27.097Z,4.95
2022-12-03T11:29:14.848Z,4.50
2022-12-03T11:33:01.090Z,4.75
2022-12-03T11:37:11.253Z,4.20
2022-12-03T11:41:18.355Z,5.13
2022-12-03T11:45:06.132Z,4.90
2022-12-03T11:48:50.186Z,4.35
2022-12-03T11:52:41.593Z,5.32
2022-12-03T11:56:26.525Z,5.07
2022-12-03T12:00:21.682Z,5.53
2022-12-03T12:04:04.336Z,4.78
2022-12-03T12:07:48.339Z,5.22
2022-12-03T12:11:39.892Z,4.40
2022-12-03T12:15:34.272Z,4.05
2022-12-03T12:19:42.267Z,4.88
2022-12-03T12:23:29.303Z,3.83
2022-12-03T12:27:14.791Z,3.85
2022-12-03T12:30:56.843Z,4.28
2022-12-03T12:34:41.133Z,4.10
2022-12-03T12:38:24.392Z,3.92
2022-12-03T12:42:25.806Z,3.88
2022-12-03T12:46:46.153Z,4.50
2022-12-03T12:50:17.564Z,3.75
2022-12-03T12:53:59.565Z,4.13
2022-12-03T12:57:41.488Z,3.67
2022-12-03T13:01:29.953Z,3.78
2022-12-03T13:05:13.159Z,3.90
2022-12-03T13:08:55.762Z,4.13
2022-12-03T13:12:39.201Z,4.00
2022-12-03T13:16:31.977Z,4.25
2022-12-03T13:20:20.699Z,4.15
2022-12-03T13:24:03.162Z,3.50
2022-12-03T13:27:46.587Z,3.35
2022-12-03T13:31:33.817Z,3.70
2022-12-03T13:35:35.565Z,3.97
2022-12-03T13:39:37.148Z,3.97
2022-12-03T13:43:20.033Z,3.67
2022-12-03T13:47:11.427Z,3.40
2022-12-03T13:50:54.486Z,4.22
2022-12-03T13:54:39.477Z,4.50
2022-12-03T13:58:21.505Z,3.75
2022-12-03T14:02:03.485Z,3.70
2022-12-03T14:05:45.524Z,3.90
2022-12-03T14:09:27.734Z,3.35
2022-12-03T14:13:09.807Z,3.67
2022-12-03T14:16:56.701Z,4.05
2022-12-03T14:20:41.683Z,4.53
2022-12-03T14:24:23.630Z,3.13
2022-12-03T14:28:08.738Z,4.22
2022-12-03T14:31:50.780Z,3.65
2022-12-03T14:35:32.742Z,4.13
2022-12-03T14:39:14.722Z,3.63
2022-12-03T14:42:56.631Z,3.47
2022-12-03T14:46:38.650Z,3.75
2022-12-03T14:50:20.591Z,3.75
2022-12-03T14:54:02.561Z,4.50
2022-12-03T14:57:44.540Z,4.68
2022-12-03T15:01:26.747Z,4.43
2022-12-03T15:05:08.817Z,3.85
2022-12-03T15:08:51.267Z,3.53
2022-12-03T15:12:33.343Z,4.07
2022-12-03T15:16:15.322Z,4.00
2022-12-03T15:19:57.256Z,3.75
2022-12-03T15:23:39.412Z,3.53
2022-12-03T15:27:21.354Z,4.60
2022-12-03T15:31:03.510Z,3.40
2022-12-03T15:34:45.701Z,3.83
2022-12-03T15:38:27.688Z,3.45
2022-12-03T15:42:11.547Z,3.90
2022-12-03T15:45:53.985Z,4.07
2022-12-03T15:49:35.920Z,4.07
2022-12-03T15:53:17.837Z,3.75
2022-12-03T15:56:59.833Z,3.47
2022-12-03T16:00:41.836Z,4.10
2022-12-03T16:04:23.782Z,4.35
2022-12-03T16:08:05.782Z,3.90
2022-12-03T16:11:47.796Z,4.10
2022-12-03T16:15:29.761Z,4.32
2022-12-03T16:19:11.754Z,4.55
2022-12-03T16:22:53.858Z,4.30
2022-12-03T16:26:36.033Z,4.80
2022-12-03T16:30:18.298Z,4.72
2022-12-03T16:34:00.185Z,4.50
2022-12-03T16:37:42.154Z,6.20
2022-12-03T16:41:24.141Z,5.43
2022-12-03T16:45:09.858Z,13.40
2022-12-03T16:48:58.610Z,5.90
2022-12-03T16:52:40.597Z,4.93
2022-12-03T16:56:22.499Z,5.57
2022-12-03T17:00:06.411Z,6.50
2022-12-03T17:03:48.344Z,6.20
2022-12-03T17:07:30.427Z,4.70
2022-12-03T17:11:12.430Z,6.35
2022-12-03T17:14:54.469Z,4.75
2022-12-03T17:18:36.372Z,7.28
2022-12-03T17:22:18.385Z,5.13
2022-12-03T17:26:00.331Z,5.13
2022-12-03T17:29:42.371Z,5.63
2022-12-03T17:33:24.290Z,5.53
2022-12-03T17:37:06.311Z,5.90
2022-12-03T17:40:48.240Z,6.90
2022-12-03T17:44:30.556Z,6.32
2022-12-03T17:48:12.533Z,7.25
2022-12-03T17:51:54.475Z,6.07
2022-12-03T17:55:44.289Z,7.15
2022-12-03T17:59:27.064Z,7.05
2022-12-03T18:03:09.407Z,6.63
2022-12-03T18:06:51.364Z,6.38
2022-12-03T18:10:33.401Z,6.97
2022-12-03T18:14:15.335Z,6.57
2022-12-03T18:17:57.335Z,8.05
2022-12-03T18:21:39.420Z,5.72
2022-12-03T18:25:21.357Z,6.25
2022-12-03T18:29:04.599Z,6.75
2022-12-03T18:32:46.642Z,6.35
2022-12-03T18:36:32.584Z,6.47
2022-12-03T18:40:21.470Z,6.18
2022-12-03T18:44:06.636Z,6.53
2022-12-03T18:47:49.442Z,6.90
2022-12-03T18:51:31.559Z,7.68
2022-12-03T18:55:22.555Z,6.82
2022-12-03T18:59:06.655Z,6.78
2022-12-03T19:03:04.699Z,7.47
2022-12-03T19:06:47.119Z,8.77
2022-12-03T19:10:29.116Z,10.32
2022-12-03T19:14:11.277Z,7.55
2022-12-03T19:17:53.301Z,8.40
2022-12-03T19:21:35.894Z,7.72
2022-12-03T19:25:17.942Z,7.65
2022-12-03T19:28:59.895Z,7.65
2022-12-03T19:32:42.202Z,8.30
2022-12-03T19:36:30.267Z,7.80
2022-12-03T19:43:56.061Z,7.43
2022-12-03T19:47:38.210Z,7.50
2022-12-03T19:51:33.989Z,5.57
2022-12-03T19:55:19.588Z,6.55
2022-12-03T19:59:01.715Z,6.68
2022-12-03T20:02:43.745Z,7.22
2022-12-03T20:06:29.115Z,7.55
2022-12-03T20:10:11.352Z,7.85
2022-12-03T20:13:55.727Z,8.60
2022-12-03T20:17:37.668Z,8.27
2022-12-03T20:21:20.226Z,8.07
2022-12-03T20:25:04.027Z,7.82
2022-12-03T20:28:48.100Z,7.78
2022-12-03T20:32:30.055Z,8.20
2022-12-03T20:36:14.329Z,7.47
2022-12-03T20:39:56.545Z,7.63
2022-12-03T20:43:39.093Z,8.43
2022-12-03T20:47:21.194Z,7.13
2022-12-03T20:51:11.796Z,8.23
2022-12-03T20:54:53.750Z,8.43
2022-12-03T20:58:36.625Z,8.50
2022-12-03T21:02:18.762Z,8.15
2022-12-03T21:06:01.702Z,8.02
2022-12-03T21:09:43.654Z,7.72
2022-12-03T21:13:30.840Z,7.70
2022-12-03T21:17:14.344Z,7.82
2022-12-03T21:20:59.107Z,8.13
2022-12-03T21:24:42.909Z,7.90
2022-12-03T21:28:24.839Z,7.93
2022-12-03T21:32:06.835Z,7.88
2022-12-03T21:35:48.793Z,7.95
2022-12-03T21:39:30.966Z,7.55
2022-12-03T21:43:12.921Z,8.32
2022-12-03T21:47:09.948Z,8.40
2022-12-03T21:51:02.398Z,9.50
2022-12-03T21:54:44.479Z,8.93
2022-12-03T21:58:27.776Z,8.50
2022-12-03T22:02:10.947Z,7.97
2022-12-03T22:05:53.056Z,7.95
2022-12-03T22:09:35.218Z,8.00
2022-12-03T22:13:17.167Z,8.18
2022-12-03T22:16:59.282Z,8.25
2022-12-03T22:20:42.662Z,7.68
2022-12-03T22:24:24.650Z,8.13
2022-12-03T22:28:06.606Z,7.55
2022-12-03T22:31:48.628Z,8.20
2022-12-03T22:35:30.663Z,8.40
2022-12-03T22:39:13.168Z,7.95
2022-12-03T22:42:55.118Z,8.45
2022-12-03T22:46:37.189Z,8.25
2022-12-03T22:50:19.206Z,9.05
2022-12-03T22:54:02.131Z,7.65
2022-12-03T22:57:44.155Z,8.35
2022-12-03T23:01:30.422Z,7.95
2022-12-03T23:05:12.334Z,7.72
2022-12-03T23:08:54.894Z,8.50
2022-12-03T23:12:36.973Z,8.63
2022-12-03T23:16:26.398Z,8.38
2022-12-03T23:20:09.111Z,8.98
2022-12-03T23:23:51.134Z,8.15
2022-12-03T23:27:33.115Z,8.43
2022-12-03T23:31:24.170Z,7.85
2022-12-03T23:35:06.802Z,7.88
2022-12-03T23:38:48.891Z,8.65
2022-12-03T23:42:30.825Z,8.63
2022-12-03T23:46:24.584Z,9.43
2022-12-03T23:50:07.175Z,8.27
2022-12-03T23:53:49.273Z,8.27
2022-12-03T23:57:31.218Z,8.85
